Time;durP1;ratioP1;P1;durP2;ratioP2;P2;SDS_P1;SDS_P2;PMS_P1;PMS_P2;Temp;Humidity;BMP_temperature;BMP_pressure;BME280_temperature;BME280_humidity;BME280_pressure;Samples;Min_cycle;Max_cycle;Signal;HPM_P1;HPM_P2
2022/08/04 00:00:38;;;;;;;6.35;1.60;;;;;;;;;;4967878;28;20037;-86
2022/08/04 00:03:23;;;;;;;2.72;1.60;;;;;;;;;;4984309;28;20041;-86
2022/08/04 00:05:54;;;;;;;2.40;1.52;;;;;;;;;;4985328;28;20093;-88
2022/08/04 00:08:26;;;;;;;1.80;1.42;;;;;;;;;;4985746;28;20038;-89
2022/08/04 00:10:57;;;;;;;4.55;1.58;;;;;;;;;;4985186;28;20074;-86
2022/08/04 00:13:25;;;;;;;2.65;1.40;;;;;;;;;;4986069;28;20038;-86
2022/08/04 00:15:57;;;;;;;2.80;1.50;;;;;;;;;;4984368;28;20043;-86
2022/08/04 00:18:28;;;;;;;1.77;1.45;;;;;;;;;;4985251;28;20484;-86
2022/08/04 00:20:58;;;;;;;2.45;1.67;;;;;;;;;;4985546;28;20037;-87
2022/08/04 00:23:25;;;;;;;2.15;1.67;;;;;;;;;;4985069;28;20069;-87
2022/08/04 00:25:52;;;;;;;3.75;1.50;;;;;;;;;;4985047;28;20125;-87
2022/08/04 00:28:19;;;;;;;3.90;1.52;;;;;;;;;;4985506;28;20046;-85
2022/08/04 00:30:45;;;;;;;2.40;1.70;;;;;;;;;;4984762;28;20054;-87
2022/08/04 00:33:17;;;;;;;2.78;1.67;;;;;;;;;;4985702;28;20054;-86
2022/08/04 00:35:43;;;;;;;2.83;1.70;;;;;;;;;;4983805;28;20428;-86
2022/08/04 00:38:09;;;;;;;2.70;1.50;;;;;;;;;;4985022;28;20094;-86
2022/08/04 00:40:49;;;;;;;3.25;1.40;;;;;;;;;;4984336;28;20046;-86
2022/08/04 00:43:31;;;;;;;2.83;1.60;;;;;;;;;;4984504;28;20047;-86
2022/08/04 00:46:22;;;;;;;2.92;1.60;;;;;;;;;;4983311;28;20042;-86
2022/08/04 00:49:12;;;;;;;1.70;1.33;;;;;;;;;;4986010;28;20043;-85
2022/08/04 00:51:41;;;;;;;3.42;1.70;;;;;;;;;;4989241;28;20484;-88
2022/08/04 00:54:21;;;;;;;3.00;1.63;;;;;;;;;;4988446;28;20169;-88
2022/08/04 00:57:03;;;;;;;4.65;1.65;;;;;;;;;;4988761;28;20034;-86
2022/08/04 00:59:57;;;;;;;3.78;1.50;;;;;;;;;;4989366;28;20034;-86
2022/08/04 01:03:07;;;;;;;2.50;1.60;;;;;;;;;;4980584;28;20058;-87
2022/08/04 01:05:50;;;;;;;2.53;1.60;;;;;;;;;;4988417;28;20034;-87
2022/08/04 01:08:27;;;;;;;2.17;1.63;;;;;;;;;;4988868;28;20042;-87
2022/08/04 01:11:14;;;;;;;2.58;1.55;;;;;;;;;;4988826;28;20133;-87
2022/08/04 01:13:40;;;;;;;2.03;1.60;;;;;;;;;;4988955;28;20484;-86
2022/08/04 01:16:10;;;;;;;3.70;1.70;;;;;;;;;;4987261;28;20034;-87
2022/08/04 01:19:04;;;;;;;3.90;1.60;;;;;;;;;;4988664;28;20038;-87
2022/08/04 01:21:51;;;;;;;2.83;1.80;;;;;;;;;;4970832;28;20078;-86
2022/08/04 01:24:35;;;;;;;2.40;1.67;;;;;;;;;;4988099;28;20046;-86
2022/08/04 01:27:38;;;;;;;4.00;1.50;;;;;;;;;;4988432;28;20074;-84
2022/08/04 01:30:04;;;;;;;2.70;1.70;;;;;;;;;;4967312;28;20039;-86
2022/08/04 01:32:56;;;;;;;2.53;1.50;;;;;;;;;;4983928;28;20078;-86
2022/08/04 01:35:28;;;;;;;2.33;1.60;;;;;;;;;;4988114;28;20120;-86
2022/08/04 01:38:10;;;;;;;2.57;1.87;;;;;;;;;;4987127;28;20416;-86
2022/08/04 01:40:36;;;;;;;1.90;1.40;;;;;;;;;;4988277;28;20034;-85
2022/08/04 01:43:04;;;;;;;2.15;1.60;;;;;;;;;;4988893;28;20114;-86
2022/08/04 01:45:29;;;;;;;2.42;1.60;;;;;;;;;;4987239;28;20058;-86
2022/08/04 01:47:56;;;;;;;2.05;1.50;;;;;;;;;;4988709;28;20035;-86
2022/08/04 01:50:25;;;;;;;7.50;1.67;;;;;;;;;;4987964;28;20039;-86
2022/08/04 01:52:53;;;;;;;1.95;1.40;;;;;;;;;;4988544;28;20069;-86
2022/08/04 01:55:19;;;;;;;2.25;1.60;;;;;;;;;;4987658;28;20053;-87
2022/08/04 01:57:50;;;;;;;2.10;1.50;;;;;;;;;;4988032;28;20043;-88
2022/08/04 02:00:21;;;;;;;1.98;1.60;;;;;;;;;;4987743;28;20043;-86
2022/08/04 02:02:49;;;;;;;3.17;1.50;;;;;;;;;;4970398;28;20616;-87
2022/08/04 02:05:17;;;;;;;4.18;1.65;;;;;;;;;;4986417;28;20527;-86
2022/08/04 02:08:04;;;;;;;2.80;1.67;;;;;;;;;;4986971;28;20058;-85
2022/08/04 02:11:07;;;;;;;3.08;1.73;;;;;;;;;;4986624;28;20039;-86
2022/08/04 02:13:57;;;;;;;2.22;1.50;;;;;;;;;;4986610;28;20555;-86
2022/08/04 02:16:41;;;;;;;3.75;1.60;;;;;;;;;;4968208;28;20047;-86
2022/08/04 02:19:25;;;;;;;2.15;1.50;;;;;;;;;;4987057;28;20050;-86
2022/08/04 02:21:55;;;;;;;;;;;;;;;;;;4987013;28;20031;-87
2022/08/04 02:24:26;;;;;;;4.55;1.40;;;;;;;;;;4987794;28;19981;-86
2022/08/04 02:26:55;;;;;;;3.05;1.60;;;;;;;;;;4987786;28;20407;-86
2022/08/04 02:29:43;;;;;;;1.75;1.50;;;;;;;;;;4981565;28;20070;-85
2022/08/04 02:32:24;;;;;;;3.90;1.70;;;;;;;;;;4978128;28;20034;-85
2022/08/04 02:35:08;;;;;;;2.67;1.70;;;;;;;;;;4977777;28;20073;-85
2022/08/04 02:37:34;;;;;;;3.17;1.70;;;;;;;;;;4978246;28;20038;-84
2022/08/04 02:40:08;;;;;;;2.97;1.52;;;;;;;;;;4960630;28;20038;-84
2022/08/04 02:42:33;;;;;;;2.40;1.60;;;;;;;;;;4978194;28;20031;-84
2022/08/04 02:45:00;;;;;;;2.85;1.60;;;;;;;;;;4977186;28;20039;-83
2022/08/04 02:47:27;;;;;;;2.78;1.67;;;;;;;;;;4977925;28;20039;-85
2022/08/04 02:49:55;;;;;;;2.38;1.60;;;;;;;;;;4976742;28;20117;-85
2022/08/04 02:52:23;;;;;;;2.88;1.65;;;;;;;;;;4978127;28;20034;-84
2022/08/04 02:54:52;;;;;;;5.35;1.55;;;;;;;;;;4975522;28;20030;-84
2022/08/04 02:57:18;;;;;;;6.20;1.60;;;;;;;;;;4976735;28;20026;-85
2022/08/04 02:59:59;;;;;;;2.20;1.70;;;;;;;;;;4978162;28;20550;-85
2022/08/04 03:02:51;;;;;;;4.50;2.00;;;;;;;;;;4960282;28;20018;-84
2022/08/04 03:05:30;;;;;;;7.55;1.88;;;;;;;;;;4977206;28;20121;-84
2022/08/04 03:08:28;;;;;;;2.67;1.88;;;;;;;;;;4976121;28;20098;-85
2022/08/04 03:11:03;;;;;;;3.55;1.77;;;;;;;;;;4975160;28;20038;-84
2022/08/04 03:13:52;;;;;;;3.47;1.75;;;;;;;;;;4977326;28;20049;-85
2022/08/04 03:16:50;;;;;;;4.55;1.80;;;;;;;;;;4958618;28;20066;-84
2022/08/04 03:19:31;;;;;;;3.45;1.85;;;;;;;;;;4973380;28;20126;-84
2022/08/04 03:22:05;;;;;;;3.20;1.90;;;;;;;;;;4975904;28;20094;-85
2022/08/04 03:24:46;;;;;;;1.98;1.50;;;;;;;;;;4975217;28;20504;-84
2022/08/04 03:27:42;;;;;;;2.72;1.70;;;;;;;;;;4976110;28;20118;-85
2022/08/04 03:30:15;;;;;;;3.47;1.80;;;;;;;;;;4976004;28;20579;-85
2022/08/04 03:33:08;;;;;;;2.53;1.48;;;;;;;;;;4976168;28;20027;-84
2022/08/04 03:35:52;;;;;;;3.17;1.80;;;;;;;;;;4976667;28;20559;-84
2022/08/04 03:38:24;;;;;;;5.30;1.95;;;;;;;;;;4976271;28;20038;-84
2022/08/04 03:41:01;;;;;;;2.47;1.80;;;;;;;;;;4977053;28;20042;-84
2022/08/04 03:43:55;;;;;;;2.20;1.80;;;;;;;;;;4975648;28;20053;-84
2022/08/04 03:46:29;;;;;;;;;;;;;;;;;;4976950;28;20396;-84
2022/08/04 03:49:19;;;;;;;2.22;1.80;;;;;;;;;;4976893;28;20371;-85
2022/08/04 03:54:59;;;;;;;2.55;1.67;;;;;;;;;;4976166;28;20061;-84
2022/08/04 03:57:56;;;;;;;3.45;2.00;;;;;;;;;;4976597;28;20027;-85
2022/08/04 04:00:29;;;;;;;5.78;1.90;;;;;;;;;;4975806;28;20034;-83
2022/08/04 04:03:14;;;;;;;3.15;1.73;;;;;;;;;;4959363;28;20043;-85
2022/08/04 04:06:04;;;;;;;2.15;1.80;;;;;;;;;;4975935;28;20514;-85
2022/08/04 04:08:32;;;;;;;3.00;1.90;;;;;;;;;;4976068;28;20499;-84
2022/08/04 04:11:43;;;;;;;2.00;1.70;;;;;;;;;;4976601;28;20042;-85
2022/08/04 04:14:34;;;;;;;2.60;2.00;;;;;;;;;;4935260;29;20055;-85
2022/08/04 04:17:08;;;;;;;3.55;1.83;;;;;;;;;;4974268;28;20055;-85
2022/08/04 04:19:52;;;;;;;3.03;2.03;;;;;;;;;;4974992;28;20022;-85
2022/08/04 04:22:36;;;;;;;4.22;1.83;;;;;;;;;;4974816;28;20046;-84
2022/08/04 04:25:11;;;;;;;5.72;2.08;;;;;;;;;;4975462;28;20034;-84
2022/08/04 04:27:48;;;;;;;4.15;1.80;;;;;;;;;;4976174;28;20038;-84
2022/08/04 04:30:45;;;;;;;3.45;1.95;;;;;;;;;;4976188;28;20043;-84
2022/08/04 04:33:44;;;;;;;2.45;1.90;;;;;;;;;;4976331;28;20487;-84
2022/08/04 04:36:15;;;;;;;5.50;2.35;;;;;;;;;;4975081;28;20074;-85
2022/08/04 04:38:57;;;;;;;5.47;2.10;;;;;;;;;;4976194;28;20046;-85
2022/08/04 04:41:52;;;;;;;2.78;1.92;;;;;;;;;;4974720;28;20117;-84
2022/08/04 04:44:43;;;;;;;4.35;2.10;;;;;;;;;;4959629;28;20050;-85
2022/08/04 04:47:34;;;;;;;3.78;2.50;;;;;;;;;;4951801;28;20093;-84
2022/08/04 04:50:34;;;;;;;3.30;2.00;;;;;;;;;;4975906;28;20039;-84
2022/08/04 04:53:26;;;;;;;6.38;2.10;;;;;;;;;;4976193;28;20031;-85
2022/08/04 04:56:07;;;;;;;2.42;1.80;;;;;;;;;;4971594;28;20050;-85
2022/08/04 04:58:34;;;;;;;2.10;1.90;;;;;;;;;;4976651;28;20039;-84
2022/08/04 05:01:30;;;;;;;2.97;1.80;;;;;;;;;;4975895;28;20031;-85
2022/08/04 05:04:20;;;;;;;3.33;1.98;;;;;;;;;;4975433;28;20452;-82
2022/08/04 05:07:32;;;;;;;5.15;1.90;;;;;;;;;;4975903;28;20042;-85
2022/08/04 05:10:18;;;;;;;3.42;1.90;;;;;;;;;;4975344;28;20134;-85
2022/08/04 05:12:59;;;;;;;3.75;1.95;;;;;;;;;;4958481;28;20099;-85
2022/08/04 05:15:30;;;;;;;5.15;2.00;;;;;;;;;;4973990;28;20067;-84
2022/08/04 05:17:59;;;;;;;2.38;1.70;;;;;;;;;;4958224;28;20038;-85
2022/08/04 05:20:33;;;;;;;2.50;1.90;;;;;;;;;;4958874;28;20599;-85
2022/08/04 05:23:02;;;;;;;4.43;2.08;;;;;;;;;;4974756;28;20047;-84
2022/08/04 05:25:36;;;;;;;2.85;2.10;;;;;;;;;;4973906;28;20046;-85
2022/08/04 05:28:13;;;;;;;5.30;2.00;;;;;;;;;;4974397;28;20031;-85
2022/08/04 05:30:47;;;;;;;2.83;2.00;;;;;;;;;;4975951;28;20138;-85
2022/08/04 05:33:14;;;;;;;;;;;;;;;;;;4976644;28;20049;-84
2022/08/04 05:35:48;;;;;;;2.63;1.88;;;;;;;;;;4978647;28;19914;-85
2022/08/04 05:38:17;;;;;;;2.95;1.73;;;;;;;;;;4979398;28;20039;-85
2022/08/04 05:40:43;;;;;;;2.42;1.95;;;;;;;;;;4978632;28;20035;-85
2022/08/04 05:43:10;;;;;;;2.10;1.80;;;;;;;;;;4978972;28;20522;-85
2022/08/04 05:45:37;;;;;;;2.88;2.00;;;;;;;;;;4977205;28;20039;-85
2022/08/04 05:48:05;;;;;;;3.40;2.03;;;;;;;;;;4977233;28;20050;-85
2022/08/04 05:50:32;;;;;;;5.43;1.98;;;;;;;;;;4961639;28;20054;-85
2022/08/04 05:52:59;;;;;;;3.30;2.10;;;;;;;;;;4977783;28;20035;-85
2022/08/04 05:55:26;;;;;;;4.50;2.00;;;;;;;;;;4978195;28;20042;-85
2022/08/04 05:57:53;;;;;;;3.20;2.08;;;;;;;;;;4978558;28;20099;-85
2022/08/04 06:00:19;;;;;;;2.90;2.10;;;;;;;;;;4978715;28;20065;-85
2022/08/04 06:02:48;;;;;;;5.78;2.22;;;;;;;;;;4979037;28;20109;-85
2022/08/04 06:05:17;;;;;;;3.42;1.90;;;;;;;;;;4979305;28;20062;-85
2022/08/04 06:07:44;;;;;;;2.72;2.05;;;;;;;;;;4977401;28;20041;-86
2022/08/04 06:10:10;;;;;;;2.53;2.10;;;;;;;;;;4978075;28;20038;-86
2022/08/04 06:12:37;;;;;;;2.78;2.15;;;;;;;;;;4977985;28;20034;-85
2022/08/04 06:15:05;;;;;;;2.13;1.80;;;;;;;;;;4978732;28;20117;-85
2022/08/04 06:17:39;;;;;;;4.03;1.75;;;;;;;;;;4979214;28;20034;-86
2022/08/04 06:20:08;;;;;;;5.78;2.35;;;;;;;;;;4979152;28;20463;-86
2022/08/04 06:22:38;;;;;;;2.50;1.83;;;;;;;;;;4979078;28;20444;-86
2022/08/04 06:25:05;;;;;;;4.90;2.08;;;;;;;;;;4978376;28;20035;-86
2022/08/04 06:27:32;;;;;;;4.70;2.05;;;;;;;;;;4977580;28;20023;-85
2022/08/04 06:29:59;;;;;;;3.50;1.98;;;;;;;;;;4977069;28;20574;-86
2022/08/04 06:32:35;;;;;;;2.63;2.08;;;;;;;;;;4979208;28;20041;-86
2022/08/04 06:35:05;;;;;;;4.03;2.10;;;;;;;;;;4978779;28;20101;-86
2022/08/04 06:37:33;;;;;;;2.75;2.10;;;;;;;;;;4978432;28;20034;-86
2022/08/04 06:40:00;;;;;;;2.97;2.13;;;;;;;;;;4978766;28;20042;-86
2022/08/04 06:42:26;;;;;;;3.92;2.13;;;;;;;;;;4978642;28;20045;-86
2022/08/04 06:44:57;;;;;;;3.42;2.10;;;;;;;;;;4960224;28;20495;-86
2022/08/04 06:47:23;;;;;;;4.13;1.95;;;;;;;;;;4978758;28;20015;-87
2022/08/04 06:49:52;;;;;;;4.15;2.00;;;;;;;;;;4978351;28;20079;-87
2022/08/04 06:52:18;;;;;;;5.15;2.08;;;;;;;;;;4978541;28;20027;-86
2022/08/04 06:54:49;;;;;;;2.88;1.92;;;;;;;;;;4960316;28;20047;-86
2022/08/04 06:57:21;;;;;;;3.15;2.05;;;;;;;;;;4979423;28;20458;-87
2022/08/04 06:59:52;;;;;;;4.43;1.80;;;;;;;;;;4979493;28;20042;-87
2022/08/04 07:02:22;;;;;;;2.92;1.73;;;;;;;;;;4978743;28;20042;-87
2022/08/04 07:04:48;;;;;;;4.15;2.10;;;;;;;;;;4977169;28;20074;-87
2022/08/04 07:07:15;;;;;;;3.60;2.00;;;;;;;;;;4978921;28;20035;-87
2022/08/04 07:09:41;;;;;;;3.22;1.83;;;;;;;;;;4978304;28;20059;-86
2022/08/04 07:12:08;;;;;;;3.22;1.95;;;;;;;;;;4979178;28;20503;-87
2022/08/04 07:14:37;;;;;;;4.78;2.20;;;;;;;;;;4978515;28;20059;-87
2022/08/04 07:17:04;;;;;;;3.78;1.83;;;;;;;;;;4978435;28;20491;-88
2022/08/04 07:19:34;;;;;;;3.33;1.73;;;;;;;;;;4979516;28;20065;-87
2022/08/04 07:22:01;;;;;;;3.65;2.00;;;;;;;;;;4979278;28;20407;-87
2022/08/04 07:24:31;;;;;;;2.47;1.80;;;;;;;;;;4977542;28;20042;-87
2022/08/04 07:26:57;;;;;;;4.53;1.90;;;;;;;;;;4978298;28;20035;-87
2022/08/04 07:29:23;;;;;;;3.17;1.70;;;;;;;;;;4961772;28;20571;-87
2022/08/04 07:31:48;;;;;;;2.00;1.60;;;;;;;;;;4979093;28;20034;-87
2022/08/04 07:34:14;;;;;;;2.78;1.90;;;;;;;;;;4978278;28;20039;-87
2022/08/04 07:36:40;;;;;;;4.93;1.88;;;;;;;;;;4978164;28;20535;-87
2022/08/04 07:39:05;;;;;;;2.13;1.75;;;;;;;;;;4977502;28;20092;-87
2022/08/04 07:41:31;;;;;;;2.22;1.77;;;;;;;;;;4979294;28;20031;-87
2022/08/04 07:43:57;;;;;;;5.05;1.98;;;;;;;;;;4979624;28;20071;-84
2022/08/04 07:46:24;;;;;;;3.70;1.83;;;;;;;;;;4978248;28;20038;-87
2022/08/04 07:48:50;;;;;;;1.77;1.60;;;;;;;;;;4962245;28;20030;-87
2022/08/04 07:51:15;;;;;;;2.97;1.65;;;;;;;;;;4979587;28;20039;-87
2022/08/04 07:53:41;;;;;;;2.33;1.70;;;;;;;;;;4978119;28;20102;-87
2022/08/04 07:56:07;;;;;;;3.10;1.70;;;;;;;;;;4978977;28;20042;-87
2022/08/04 07:58:33;;;;;;;3.10;1.75;;;;;;;;;;4962244;28;20070;-87
2022/08/04 08:00:59;;;;;;;3.08;1.70;;;;;;;;;;4978199;28;20043;-87
2022/08/04 08:03:26;;;;;;;3.45;2.00;;;;;;;;;;4979376;28;20082;-87
2022/08/04 08:05:51;;;;;;;4.68;1.80;;;;;;;;;;4978612;28;20030;-87
2022/08/04 08:08:19;;;;;;;5.00;1.85;;;;;;;;;;4980051;28;20214;-88
2022/08/04 08:10:47;;;;;;;3.60;1.70;;;;;;;;;;4978061;28;20042;-87
2022/08/04 08:13:14;;;;;;;3.60;1.75;;;;;;;;;;4978920;28;20046;-87
2022/08/04 08:15:40;;;;;;;1.70;1.60;;;;;;;;;;4978185;28;20158;-87
2022/08/04 08:18:06;;;;;;;5.28;1.98;;;;;;;;;;4979341;28;20499;-87
2022/08/04 08:20:32;;;;;;;6.53;1.90;;;;;;;;;;4979354;28;20085;-87
2022/08/04 08:22:59;;;;;;;2.28;1.70;;;;;;;;;;4961318;28;20031;-87
2022/08/04 08:25:25;;;;;;;4.68;2.03;;;;;;;;;;4977699;28;20037;-87
2022/08/04 08:27:51;;;;;;;2.67;1.88;;;;;;;;;;4979225;28;20038;-87
2022/08/04 08:30:16;;;;;;;4.03;2.00;;;;;;;;;;4978155;28;20126;-87
2022/08/04 08:32:42;;;;;;;4.13;1.90;;;;;;;;;;4978755;28;20030;-87
2022/08/04 08:35:08;;;;;;;3.55;2.03;;;;;;;;;;4977955;28;20037;-86
2022/08/04 08:37:41;;;;;;;2.17;1.75;;;;;;;;;;4961198;28;20133;-87
2022/08/04 08:40:32;;;;;;;2.75;2.20;;;;;;;;;;4977551;28;20038;-87
2022/08/04 08:43:22;;;;;;;2.22;1.95;;;;;;;;;;4962451;28;20066;-87
2022/08/04 08:45:54;;;;;;;3.25;2.00;;;;;;;;;;4977526;28;20404;-87
2022/08/04 08:48:54;;;;;;;2.33;1.95;;;;;;;;;;4978119;28;20095;-85
2022/08/04 08:51:39;;;;;;;3.58;1.90;;;;;;;;;;4978189;28;20042;-87
2022/08/04 08:54:31;;;;;;;3.85;2.25;;;;;;;;;;4978770;28;20483;-88
2022/08/04 08:57:02;;;;;;;3.15;2.22;;;;;;;;;;4977538;28;20150;-87
2022/08/04 08:59:36;;;;;;;5.22;2.10;;;;;;;;;;4977852;28;20045;-88
2022/08/04 09:02:53;;;;;;;4.95;1.88;;;;;;;;;;4977731;28;20042;-87
2022/08/04 09:05:53;;;;;;;5.43;2.28;;;;;;;;;;4980274;28;20046;-88
2022/08/04 09:08:44;;;;;;;4.60;2.33;;;;;;;;;;4977930;28;20042;-88
2022/08/04 09:11:15;;;;;;;3.10;2.10;;;;;;;;;;4983120;28;20447;-88
2022/08/04 09:13:46;;;;;;;3.50;1.92;;;;;;;;;;4982789;28;20027;-87
2022/08/04 09:16:30;;;;;;;6.25;2.15;;;;;;;;;;4981591;28;20039;-88
2022/08/04 09:19:03;;;;;;;2.10;1.90;;;;;;;;;;4966288;28;20097;-88
2022/08/04 09:22:13;;;;;;;3.17;2.10;;;;;;;;;;4983241;28;20094;-88
2022/08/04 09:24:56;;;;;;;2.90;2.25;;;;;;;;;;4961092;29;20039;-88
2022/08/04 09:27:50;;;;;;;4.18;1.98;;;;;;;;;;4980078;28;20508;-87
2022/08/04 09:30:22;;;;;;;3.03;2.17;;;;;;;;;;4982762;28;20038;-88
2022/08/04 09:33:15;;;;;;;4.50;2.00;;;;;;;;;;4983017;28;20042;-87
2022/08/04 09:35:47;;;;;;;5.43;2.10;;;;;;;;;;4980850;28;20034;-87
2022/08/04 09:38:19;;;;;;;5.15;2.15;;;;;;;;;;4981464;28;20343;-87
2022/08/04 09:40:57;;;;;;;3.87;2.13;;;;;;;;;;4981956;28;20064;-87
2022/08/04 09:43:48;;;;;;;4.53;2.17;;;;;;;;;;4980457;28;20129;-87
2022/08/04 09:46:50;;;;;;;4.50;1.92;;;;;;;;;;4980696;28;20468;-87
2022/08/04 09:49:27;;;;;;;5.80;2.20;;;;;;;;;;4962678;28;20054;-87
2022/08/04 09:52:06;;;;;;;4.38;2.13;;;;;;;;;;4982059;28;20117;-87
2022/08/04 09:54:38;;;;;;;4.85;2.22;;;;;;;;;;4981115;28;20054;-87
2022/08/04 09:57:13;;;;;;;4.72;2.10;;;;;;;;;;4980284;28;20515;-87
2022/08/04 09:59:52;;;;;;;2.78;2.20;;;;;;;;;;4980159;28;20023;-87
2022/08/04 10:02:21;;;;;;;5.78;2.30;;;;;;;;;;4981441;28;20065;-87
2022/08/04 10:04:49;;;;;;;5.65;2.30;;;;;;;;;;4963741;28;20022;-87
2022/08/04 10:07:17;;;;;;;3.05;2.30;;;;;;;;;;4981901;28;20407;-85
2022/08/04 10:10:02;;;;;;;3.50;2.03;;;;;;;;;;4979326;28;20038;-87
2022/08/04 10:12:40;;;;;;;4.15;2.20;;;;;;;;;;4981448;28;20038;-87
2022/08/04 10:15:14;;;;;;;4.78;2.00;;;;;;;;;;4980859;28;20167;-87
2022/08/04 10:17:42;;;;;;;8.90;2.22;;;;;;;;;;4981502;28;20079;-87
2022/08/04 10:20:56;;;;;;;4.20;2.63;;;;;;;;;;4979781;28;20039;-87
2022/08/04 10:23:40;;;;;;;;;;;;;;;;;;4972819;28;20074;-87
2022/08/04 10:26:28;;;;;;;2.97;2.22;;;;;;;;;;4978953;28;19913;-87
2022/08/04 10:29:09;;;;;;;3.20;2.22;;;;;;;;;;4980977;28;20066;-87
2022/08/04 10:31:45;;;;;;;3.80;2.17;;;;;;;;;;4979952;28;20041;-87
2022/08/04 10:34:19;;;;;;;4.00;2.10;;;;;;;;;;4980526;28;20038;-87
2022/08/04 10:36:54;;;;;;;3.75;2.00;;;;;;;;;;4980022;28;20050;-87
2022/08/04 10:39:28;;;;;;;4.38;2.30;;;;;;;;;;4981059;28;20125;-87
2022/08/04 10:42:15;;;;;;;3.28;2.00;;;;;;;;;;4981079;28;20178;-87
2022/08/04 10:44:44;;;;;;;3.35;2.22;;;;;;;;;;4979081;28;20038;-87
2022/08/04 10:47:20;;;;;;;3.45;2.03;;;;;;;;;;4980686;28;20042;-87
2022/08/04 10:49:53;;;;;;;3.95;2.22;;;;;;;;;;4963253;28;20041;-87
2022/08/04 10:52:28;;;;;;;4.78;2.10;;;;;;;;;;4980354;28;20045;-86
2022/08/04 10:55:32;;;;;;;4.03;2.10;;;;;;;;;;4979769;28;20484;-87
2022/08/04 10:58:04;;;;;;;3.10;2.20;;;;;;;;;;4961818;28;20062;-87
2022/08/04 11:00:34;;;;;;;2.60;2.13;;;;;;;;;;4982540;28;20035;-87
2022/08/04 11:03:04;;;;;;;4.32;2.05;;;;;;;;;;4964664;28;20038;-87
2022/08/04 11:05:44;;;;;;;3.58;2.13;;;;;;;;;;4980655;28;20122;-87
2022/08/04 11:08:43;;;;;;;2.50;2.05;;;;;;;;;;4980382;28;20058;-87
2022/08/04 11:11:30;;;;;;;3.72;2.20;;;;;;;;;;4980835;28;20041;-87
2022/08/04 11:14:06;;;;;;;4.55;2.28;;;;;;;;;;4979084;28;20472;-86
2022/08/04 11:16:56;;;;;;;3.97;2.25;;;;;;;;;;4963039;28;20413;-87
2022/08/04 11:19:57;;;;;;;4.65;2.30;;;;;;;;;;4980252;28;20066;-87
2022/08/04 11:22:24;;;;;;;3.00;2.20;;;;;;;;;;4938953;29;20032;-87
2022/08/04 11:25:00;;;;;;;3.47;2.30;;;;;;;;;;4973872;28;20050;-87
2022/08/04 11:27:39;;;;;;;2.42;2.05;;;;;;;;;;4980270;28;20122;-87
2022/08/04 11:30:11;;;;;;;4.32;2.30;;;;;;;;;;4980187;28;20050;-87
2022/08/04 11:32:52;;;;;;;4.60;2.22;;;;;;;;;;4961880;28;20492;-87
2022/08/04 11:35:33;;;;;;;2.83;2.05;;;;;;;;;;4979212;28;20043;-87
2022/08/04 11:38:10;;;;;;;3.03;2.20;;;;;;;;;;4980406;28;20038;-87
2022/08/04 11:40:43;;;;;;;3.25;2.13;;;;;;;;;;4979897;28;20057;-87
2022/08/04 11:43:12;;;;;;;;;;;;;;;;;;4980426;28;20046;-87
2022/08/04 11:45:50;;;;;;;3.67;2.40;;;;;;;;;;4979986;28;19937;-87
2022/08/04 11:48:22;;;;;;;2.20;2.00;;;;;;;;;;4980591;28;20034;-87
2022/08/04 11:50:54;;;;;;;3.10;2.05;;;;;;;;;;4979990;28;20018;-87
2022/08/04 11:53:22;;;;;;;4.78;2.30;;;;;;;;;;4979261;28;20119;-87
2022/08/04 11:55:51;;;;;;;4.13;2.13;;;;;;;;;;4979441;28;20023;-87
2022/08/04 11:58:19;;;;;;;4.53;2.28;;;;;;;;;;4979276;28;20118;-87
2022/08/04 12:01:14;;;;;;;4.57;2.10;;;;;;;;;;4980205;28;20041;-87
2022/08/04 12:03:53;;;;;;;4.43;2.20;;;;;;;;;;4973822;28;20046;-87
2022/08/04 12:06:47;;;;;;;3.03;2.10;;;;;;;;;;4978446;28;20043;-87
2022/08/04 12:09:38;;;;;;;6.15;2.13;;;;;;;;;;4978562;28;20047;-87
2022/08/04 12:12:28;;;;;;;4.35;2.20;;;;;;;;;;4979924;28;20039;-87
2022/08/04 12:15:35;;;;;;;3.08;2.13;;;;;;;;;;4981783;28;20049;-87
2022/08/04 12:18:21;;;;;;;3.85;2.10;;;;;;;;;;4965124;28;20042;-87
2022/08/04 12:20:58;;;;;;;4.20;2.10;;;;;;;;;;4962419;28;20599;-87
2022/08/04 12:23:31;;;;;;;3.75;2.30;;;;;;;;;;4979423;28;20042;-87
2022/08/04 12:26:01;;;;;;;3.83;2.00;;;;;;;;;;4977941;28;20066;-87
2022/08/04 12:28:34;;;;;;;3.65;2.00;;;;;;;;;;4979357;28;20066;-87
2022/08/04 12:31:06;;;;;;;2.83;2.17;;;;;;;;;;4979626;28;20046;-87
2022/08/04 12:33:43;;;;;;;2.72;1.80;;;;;;;;;;4962448;28;20031;-87
2022/08/04 12:36:19;;;;;;;3.40;1.73;;;;;;;;;;4978163;28;20448;-87
2022/08/04 12:39:05;;;;;;;3.47;2.00;;;;;;;;;;4977329;28;20031;-87
2022/08/04 12:41:39;;;;;;;7.53;2.00;;;;;;;;;;4979530;28;20041;-87
2022/08/04 12:44:09;;;;;;;2.65;1.95;;;;;;;;;;4982054;28;20035;-86
2022/08/04 12:46:36;;;;;;;3.55;2.10;;;;;;;;;;4983524;28;20035;-87
2022/08/04 12:49:03;;;;;;;9.27;2.33;;;;;;;;;;4982873;28;20026;-87
2022/08/04 12:51:36;;;;;;;5.78;2.17;;;;;;;;;;4983822;28;20043;-87
2022/08/04 12:54:05;;;;;;;2.67;2.00;;;;;;;;;;4982611;28;20031;-87
2022/08/04 12:56:32;;;;;;;3.67;2.20;;;;;;;;;;4983721;28;20049;-87
2022/08/04 12:59:06;;;;;;;2.78;1.90;;;;;;;;;;4984003;28;20042;-87
2022/08/04 13:01:32;;;;;;;6.05;2.45;;;;;;;;;;4983310;28;20054;-87
2022/08/04 13:04:03;;;;;;;4.80;2.20;;;;;;;;;;4983013;28;20129;-87
2022/08/04 13:06:34;;;;;;;2.83;2.03;;;;;;;;;;4981674;28;20098;-87
2022/08/04 13:09:09;;;;;;;3.60;2.03;;;;;;;;;;4981078;28;20122;-87
2022/08/04 13:11:45;;;;;;;3.42;2.28;;;;;;;;;;4982765;28;20126;-87
2022/08/04 13:14:13;;;;;;;3.70;2.20;;;;;;;;;;4982627;28;20038;-87
2022/08/04 13:16:40;;;;;;;2.97;1.98;;;;;;;;;;4982542;28;20476;-87
2022/08/04 13:19:08;;;;;;;6.25;2.33;;;;;;;;;;4982885;28;20034;-87
2022/08/04 13:21:34;;;;;;;3.17;2.20;;;;;;;;;;4982542;28;20037;-87
2022/08/04 13:24:09;;;;;;;6.80;2.38;;;;;;;;;;4981970;28;20407;-87
2022/08/04 13:26:35;;;;;;;3.05;2.00;;;;;;;;;;4982683;28;20037;-87
2022/08/04 13:29:04;;;;;;;2.83;2.10;;;;;;;;;;4982781;28;20039;-87
2022/08/04 13:31:32;;;;;;;3.85;2.00;;;;;;;;;;4982698;28;20026;-87
2022/08/04 13:34:06;;;;;;;3.85;2.17;;;;;;;;;;4964818;28;20089;-85
2022/08/04 13:36:32;;;;;;;3.80;2.20;;;;;;;;;;4982843;28;20042;-87
2022/08/04 13:39:05;;;;;;;3.58;2.20;;;;;;;;;;4981950;28;20488;-86
2022/08/04 13:41:32;;;;;;;6.95;1.98;;;;;;;;;;4982890;28;20034;-87
2022/08/04 13:44:01;;;;;;;4.60;2.20;;;;;;;;;;4981386;28;20043;-87
2022/08/04 13:46:53;;;;;;;4.00;2.08;;;;;;;;;;4982349;28;20065;-87
2022/08/04 13:49:19;;;;;;;3.70;2.13;;;;;;;;;;4976771;28;20051;-87
2022/08/04 13:51:53;;;;;;;4.80;2.17;;;;;;;;;;4982058;28;20034;-87
2022/08/04 13:54:19;;;;;;;5.70;2.10;;;;;;;;;;4981330;28;20506;-87
2022/08/04 13:56:49;;;;;;;5.03;1.90;;;;;;;;;;4982176;28;20042;-87
2022/08/04 13:59:18;;;;;;;2.70;1.83;;;;;;;;;;4982884;28;20498;-87
2022/08/04 14:01:55;;;;;;;5.75;2.55;;;;;;;;;;4981021;28;20035;-87
2022/08/04 14:04:23;;;;;;;3.38;2.00;;;;;;;;;;4980994;28;20556;-87
2022/08/04 14:06:58;;;;;;;2.33;2.05;;;;;;;;;;4982182;28;20170;-87
2022/08/04 14:09:26;;;;;;;4.45;2.03;;;;;;;;;;4980413;28;20054;-87
2022/08/04 14:11:55;;;;;;;2.63;1.83;;;;;;;;;;4964442;28;20050;-87
2022/08/04 14:14:26;;;;;;;8.00;2.03;;;;;;;;;;4981562;28;20034;-87
2022/08/04 14:17:01;;;;;;;4.45;2.20;;;;;;;;;;4979903;28;20042;-87
2022/08/04 14:19:29;;;;;;;2.25;1.95;;;;;;;;;;4980951;28;20041;-87
2022/08/04 14:21:54;;;;;;;3.67;1.90;;;;;;;;;;4964766;28;20037;-87
2022/08/04 14:24:27;;;;;;;5.25;2.10;;;;;;;;;;4981368;28;20387;-87
2022/08/04 14:27:01;;;;;;;;;;;;;;;;;;4982489;28;20563;-87
2022/08/04 14:29:36;;;;;;;6.35;1.95;;;;;;;;;;4983712;28;19914;-88
2022/08/04 14:32:07;;;;;;;5.65;2.25;;;;;;;;;;4966040;28;20039;-88
2022/08/04 14:34:38;;;;;;;3.83;2.17;;;;;;;;;;4981648;28;20057;-88
2022/08/04 14:37:09;;;;;;;5.15;2.10;;;;;;;;;;4981102;28;20039;-88
2022/08/04 14:39:40;;;;;;;4.55;2.10;;;;;;;;;;4982179;28;20034;-90
2022/08/04 14:42:06;;;;;;;6.65;2.20;;;;;;;;;;4965288;28;20022;-88
2022/08/04 14:44:52;;;;;;;3.63;2.00;;;;;;;;;;4981420;28;20062;-88
2022/08/04 14:47:18;;;;;;;2.22;2.00;;;;;;;;;;4981600;28;20040;-89
2022/08/04 14:49:54;;;;;;;5.65;2.00;;;;;;;;;;4981398;28;20492;-88
2022/08/04 14:52:24;;;;;;;3.78;2.10;;;;;;;;;;4983503;28;20039;-86
2022/08/04 14:54:50;;;;;;;4.68;2.10;;;;;;;;;;4981846;28;20114;-89
2022/08/04 14:57:15;;;;;;;4.15;2.13;;;;;;;;;;4981999;28;20065;-89
2022/08/04 14:59:47;;;;;;;2.58;2.13;;;;;;;;;;4982423;28;20051;-88
2022/08/04 15:02:13;;;;;;;6.95;2.30;;;;;;;;;;4982822;28;20031;-86
2022/08/04 15:04:41;;;;;;;3.40;2.00;;;;;;;;;;4982607;28;20118;-87
2022/08/04 15:07:07;;;;;;;3.33;1.85;;;;;;;;;;4964060;28;20093;-88
2022/08/04 15:09:34;;;;;;;3.72;2.22;;;;;;;;;;4980960;28;20019;-88
2022/08/04 15:12:01;;;;;;;3.75;2.03;;;;;;;;;;4982447;28;20051;-89
2022/08/04 15:14:28;;;;;;;4.95;2.10;;;;;;;;;;4981145;28;20043;-90
2022/08/04 15:16:53;;;;;;;3.33;2.10;;;;;;;;;;4980921;28;20039;-88
2022/08/04 15:19:19;;;;;;;3.38;2.10;;;;;;;;;;4982458;28;20042;-88
2022/08/04 15:21:44;;;;;;;5.97;2.28;;;;;;;;;;4982790;28;20034;-88
2022/08/04 15:24:11;;;;;;;3.10;2.30;;;;;;;;;;4964915;28;20039;-88
2022/08/04 15:27:03;;;;;;;4.10;2.00;;;;;;;;;;4982786;28;20059;-90
2022/08/04 15:29:45;;;;;;;4.70;2.22;;;;;;;;;;4981168;28;20053;-88
2022/08/04 15:32:13;;;;;;;4.57;2.00;;;;;;;;;;4981717;28;20042;-87
2022/08/04 15:34:47;;;;;;;2.67;1.92;;;;;;;;;;4980958;28;20134;-88
2022/08/04 15:37:50;;;;;;;3.47;2.00;;;;;;;;;;4983315;28;20157;-86